Hlavní strana
METAR-TAF:

METAR-TAF

Letiště :

Mezinárodní letiště Čhatrapatího Šivádžího

Bombaj, Indie

zeměpisná šířka: 19-07N, zeměpisná délka: 072-51E, výška: 8 m

Aktuální stav počasí

Zpráva byla vytvořena před 38 minutami, v 22:00 UTC
Východní vítr 11 kt
Teplota 24°C
Vlhkost vzduchu 36%
Tlak 1013 hPa
Viditelnost: 3000 m
kouř

METAR: VABB 132200Z 08011KT 3000 FU NSC 24/08 Q1013 NOSIG

Čas: 04:08 (22:38 UTC)

Předpověď počasí

Zpráva byla vytvořena před 2 hodinami a 38 minutami, v 20:00 UTC
Předpověď platná od 13 v 21 UTC do 14 v 06 UTC
Severní vítr kt
Viditelnost: 2000 m
zákal, kouř
Změna
od 14 v 04 UTC do 14 v 06 UTC
Severovýchodní vítr 6 kt
Viditelnost: 3000 m
kouř

TAF: VABB 132000Z 1321/1406 00000KT 2000 HZ FU NSC BECMG 1404/1406 05006KT 3000 FU

Stav a předpovědi počasí z více než 4 000 letišť (zprávy METAR a TAF).

Červené a žluté tečky na mapě představují dostupné meteorologické stanice.

Když kurzor umístíte na tečku, zobrazí se název stanice.

Pak kliknutím zobrazíte stav a předpověď počasí.

Chcete-li změnit mapu, kliknutím na zelené tlačítko se znaménkem +mapu přiblížíte, kliknutím na zelené tlačítko se znaménkem – mapu oddálíte a kliknutím na zelené šipky přejdete na sousední mapy.


METAR-TAF: